Externo — V2QJ8 — position and weather

sailwx.info

Track history (hours):
 
Tides and Currents Weather Stations Pressure Air Temp Water Temp Dewpoint Dewpoint Depression Visibility Wind Speed Wind Dir Waves Ship Positions

Externo

Last reported at 2018-Jul-16 21:07 UTC. Time now 2018-Jul-17 04:11 UTC.
Position N 35°54' W 005°38'.

Length 141 m; draft 7.5 m.

Type: Ship (hazmat cat A). MMSI: 305838000.

Date/timePositionNaut miles runAvg speedWind from/ knotsBaromVisibWave heightAir tempDewpointWater temp
2018-Jul-16 21:07N 35°54' W 005°38'216.9
2018-Jul-16 21:00N 35°54' W 005°41'215 4.9
2018-Jul-15 01:03N 37°43' W 009°33'310.1
2018-Jul-15 00:44N 37°46' W 009°33'210.1
2018-Jul-15 00:29N 37°48' W 009°33'1210.0
2018-Jul-14 23:19N 37°60' W 009°32'410.3
2018-Jul-14 22:58N 38°04' W 009°31'510.2
2018-Jul-14 22:30N 38°08' W 009°31'510.1
2018-Jul-14 22:01N 38°13' W 009°31'510.1
2018-Jul-14 21:31N 38°18' W 009°30'510.2
2018-Jul-14 21:01N 38°23' W 009°30'510.4
2018-Jul-14 20:31N 38°29' W 009°28'510.8
2018-Jul-14 20:01N 38°34' W 009°26'5 9.6
2018-Jul-14 19:30N 38°37' W 009°22'510.2
2018-Jul-14 19:00N 38°41' W 009°18'712.9
2018-Jul-14 18:28N 38°42' W 009°09'3 5.3
2018-Jul-14 17:59N 38°44' W 009°06'0 0.0
2018-Jul-14 17:29N 38°44' W 009°06'0 0.0
2018-Jul-14 16:56N 38°44' W 009°06'0 0.0
2018-Jul-14 16:20N 38°44' W 009°06'0 0.0
2018-Jul-14 15:59N 38°44' W 009°06'0 0.0
2018-Jul-14 15:29N 38°44' W 009°06'0 0.0
2018-Jul-14 14:59N 38°44' W 009°06'0 0.0
2018-Jul-14 14:26N 38°44' W 009°06'0 0.0
2018-Jul-14 13:29N 38°44' W 009°06'0 0.0
2018-Jul-14 12:56N 38°44' W 009°06'0 0.0
2018-Jul-14 12:29N 38°44' W 009°06'0 0.0
2018-Jul-14 11:59N 38°44' W 009°06'0 0.0
2018-Jul-14 11:29N 38°44' W 009°06'0 0.0
2018-Jul-14 10:56N 38°44' W 009°06'0 0.0
2018-Jul-14 10:26N 38°44' W 009°06'0 0.0
2018-Jul-14 09:59N 38°44' W 009°06'0 0.0
2018-Jul-14 09:29N 38°44' W 009°06'0 0.7
2018-Jul-14 09:00N 38°43' W 009°07'611.4
2018-Jul-14 08:28N 38°41' W 009°14'511.4
2018-Jul-14 08:00N 38°39' W 009°20'815.5
2018-Jul-14 07:30N 38°36' W 009°29'917.2
2018-Jul-14 07:00N 38°35' W 009°40'917.3
2018-Jul-14 06:30N 38°35' W 009°51'2513.2
2018-Jul-14 04:37N 38°57' W 010°05'216.7
2018-Jul-14 04:30N 38°59' W 010°05'816.5
2018-Jul-14 03:59N 39°08' W 010°05'1116.6
2018-Jul-14 03:20N 39°19' W 010°06'917.1
2018-Jul-14 02:49N 39°27' W 010°06'516.9
2018-Jul-14 02:30N 39°33' W 010°04'2116.8
2018-Jul-14 01:14N 39°53' W 009°55'13717.0
2018-Jul-13 17:09N 42°04' W 008°60'317.5
2018-Jul-13 17:00N 42°06' W 008°59'816.1
2018-Jul-13 16:30N 42°12' W 008°51'7 0.3
2018-Jul-12 19:10N 42°15' W 008°43'1 5.2
2018-Jul-12 19:00N 42°15' W 008°44'510.4
2018-Jul-12 18:30N 42°12' W 008°50'714.9
2018-Jul-12 18:01N 42°08' W 008°58'5215.0
2018-Jul-12 14:33N 41°16' W 008°49'115.4
2018-Jul-12 14:30N 41°15' W 008°49'713.9
2018-Jul-12 14:01N 41°10' W 008°43'2 4.7
2018-Jul-12 13:30N 41°12' W 008°41'0 0.0
2018-Jul-12 12:58N 41°12' W 008°41'0 0.0
2018-Jul-12 12:28N 41°12' W 008°41'0 0.0
2018-Jul-12 11:58N 41°12' W 008°41'0 0.0
2018-Jul-12 11:28N 41°12' W 008°41'0 0.0
2018-Jul-12 10:58N 41°12' W 008°41'0 0.0
2018-Jul-12 10:28N 41°12' W 008°41'0 0.0
2018-Jul-12 09:58N 41°12' W 008°41'0 0.0
2018-Jul-12 09:28N 41°12' W 008°41'0 0.0
2018-Jul-12 08:58N 41°12' W 008°41'0 0.0
2018-Jul-12 08:25N 41°12' W 008°41'0 0.0
2018-Jul-12 07:58N 41°12' W 008°41'0 0.0
2018-Jul-12 07:28N 41°12' W 008°41'0 0.0
2018-Jul-12 06:58N 41°12' W 008°41'0 0.0
2018-Jul-12 06:28N 41°12' W 008°41'0 0.0
2018-Jul-12 05:58N 41°12' W 008°41'0 0.0
2018-Jul-12 05:28N 41°12' W 008°41'0 0.0
2018-Jul-12 04:58N 41°12' W 008°41'0 0.0
2018-Jul-12 04:28N 41°12' W 008°41'0 0.0
2018-Jul-12 03:58N 41°12' W 008°41'0 0.0
2018-Jul-12 03:28N 41°12' W 008°41'0 0.0
2018-Jul-12 02:58N 41°12' W 008°41'0 0.0
2018-Jul-12 02:28N 41°12' W 008°41'0 0.0
2018-Jul-12 01:58N 41°12' W 008°41'0 0.0
2018-Jul-12 01:28N 41°12' W 008°41'0 0.0
2018-Jul-12 00:58N 41°12' W 008°41'0 0.0
2018-Jul-12 00:28N 41°12' W 008°41'1 1.4
2018-Jul-12 00:00N 41°11' W 008°42'3 5.4
2018-Jul-11 23:31N 41°10' W 008°45'2 3.6
2018-Jul-11 23:00N 41°10' W 008°47'2 4.5
2018-Jul-11 22:30N 41°11' W 008°50'1 1.3
2018-Jul-11 22:00N 41°11' W 008°50'1 2.3
2018-Jul-11 21:30N 41°10' W 008°50'1 2.5
2018-Jul-11 20:59N 41°09' W 008°50'2 4.0
2018-Jul-11 20:30N 41°07' W 008°52'6611.6
2018-Jul-11 14:45N 40°06' W 009°25'613.3
2018-Jul-11 14:20N 40°00' W 009°28'1514.2
2018-Jul-11 13:15N 39°46' W 009°35'414.3
2018-Jul-11 13:00N 39°43' W 009°37'1014.2
2018-Jul-11 12:20N 39°34' W 009°41'413.6
2018-Jul-11 12:00N 39°30' W 009°43'713.9
2018-Jul-11 11:30N 39°23' W 009°45'814.4
2018-Jul-11 10:58N 39°15' W 009°46'714.7
2018-Jul-11 10:30N 39°09' W 009°47'714.4
2018-Jul-11 10:00N 39°02' W 009°49'714.5
2018-Jul-11 09:31N 38°54' W 009°50'714.6
2018-Jul-11 09:00N 38°47' W 009°50'714.5
2018-Jul-11 08:30N 38°40' W 009°49'714.3
2018-Jul-11 08:00N 38°33' W 009°48'714.4
2018-Jul-11 07:30N 38°26' W 009°45'714.6
2018-Jul-11 07:00N 38°19' W 009°42'714.7
2018-Jul-11 06:31N 38°12' W 009°40'714.6
2018-Jul-11 06:00N 38°05' W 009°39'816.0
2018-Jul-11 05:30N 37°57' W 009°36'916.4
2018-Jul-11 04:59N 37°48' W 009°34'916.2
2018-Jul-11 04:24N 37°39' W 009°31'2616.1
2018-Jul-11 02:46N 37°13' W 009°24'416.1
2018-Jul-11 02:30N 37°09' W 009°23'815.8
2018-Jul-11 02:01N 37°02' W 009°21'915.6
2018-Jul-11 01:24N 36°53' W 009°17'616.4
2018-Jul-11 01:00N 36°48' W 009°12'815.6
2018-Jul-11 00:30N 36°44' W 009°03'815.8
2018-Jul-11 00:00N 36°42' W 008°54'815.7
2018-Jul-10 23:30N 36°39' W 008°45'2915.3
2018-Jul-10 21:36N 36°30' W 008°11'114.3
2018-Jul-10 21:30N 36°29' W 008°09'1013.9
2018-Jul-10 20:45N 36°26' W 007°56'514.0
2018-Jul-10 20:26N 36°25' W 007°51'913.9
2018-Jul-10 19:48N 36°22' W 007°41'914.5
2018-Jul-10 19:11N 36°19' W 007°30'7115.0
2018-Jul-10 14:28N 35°58' W 006°07'2613.8
2018-Jul-10 12:34N 35°59' W 005°34'114.2
2018-Jul-10 12:30N 35°59' W 005°33'813.1
2018-Jul-10 11:55N 36°02' W 005°24'512.4
2018-Jul-10 11:30N 36°07' W 005°25'1 0.2
2018-Jul-10 07:03N 36°08' W 005°25'0 0.0
2018-Jul-10 06:51N 36°08' W 005°25'0 0.0
2018-Jul-10 06:21N 36°08' W 005°25'0 0.0
2018-Jul-10 05:57N 36°08' W 005°25'0 0.0
2018-Jul-10 05:30N 36°08' W 005°25'0 0.0
2018-Jul-10 05:00N 36°08' W 005°25'0 0.0
2018-Jul-10 04:28N 36°08' W 005°25'0 0.0
2018-Jul-10 03:55N 36°08' W 005°25'0 0.0
2018-Jul-10 03:28N 36°08' W 005°25'0 0.0
2018-Jul-10 02:58N 36°08' W 005°25'0 0.0
2018-Jul-10 02:29N 36°08' W 005°25'0 0.0
2018-Jul-10 01:59N 36°08' W 005°25'0 0.0
2018-Jul-10 01:29N 36°08' W 005°25'0 0.0
2018-Jul-10 00:59N 36°08' W 005°25'0 0.0
2018-Jul-10 00:29N 36°08' W 005°25'0 0.0
2018-Jul-09 23:59N 36°08' W 005°25'0 0.0
2018-Jul-09 23:29N 36°08' W 005°25'0 0.0
2018-Jul-09 22:23N 36°08' W 005°25'0 0.0
2018-Jul-09 21:52N 36°08' W 005°25'1 2.2
2018-Jul-09 21:14N 36°07' W 005°24'1 4.7
2018-Jul-09 21:00N 36°06' W 005°25'0 0.3
2018-Jul-09 20:28N 36°06' W 005°25'0 0.1
2018-Jul-09 19:58N 36°06' W 005°25'0 0.1
2018-Jul-09 18:55N 36°06' W 005°25'0 0.0
2018-Jul-09 18:25N 36°06' W 005°25'0 0.0
2018-Jul-09 17:55N 36°06' W 005°25'0 0.0
2018-Jul-09 17:28N 36°06' W 005°25'0 0.0
2018-Jul-09 16:55N 36°06' W 005°25'0 0.0
2018-Jul-09 16:25N 36°06' W 005°25'0 0.0
2018-Jul-09 15:55N 36°06' W 005°25'0 0.1
2018-Jul-09 15:13N 36°06' W 005°25'0 0.0
2018-Jul-09 14:16N 36°06' W 005°25'0 0.1
2018-Jul-09 13:22N 36°06' W 005°25'0 0.2
2018-Jul-09 12:58N 36°06' W 005°25'0 0.0
2018-Jul-09 12:28N 36°06' W 005°25'0 0.1
2018-Jul-09 11:58N 36°06' W 005°25'0 0.0
2018-Jul-09 11:28N 36°06' W 005°25'0 0.1
2018-Jul-09 10:58N 36°06' W 005°25'0 0.0
2018-Jul-09 10:04N 36°06' W 005°25'0 0.0
2018-Jul-09 09:58N 36°06' W 005°25'0 0.0
2018-Jul-09 09:22N 36°06' W 005°25'0 0.1
2018-Jul-09 08:58N 36°06' W 005°25'0 0.0
2018-Jul-09 08:16N 36°06' W 005°25'0 0.0
2018-Jul-09 07:58N 36°06' W 005°25'0 0.0
2018-Jul-09 07:10N 36°06' W 005°25'0 0.1
2018-Jul-09 05:37N 36°06' W 005°25'0 0.2
2018-Jul-09 05:28N 36°06' W 005°25'0 0.0
2018-Jul-09 04:58N 36°06' W 005°25'0 0.1
2018-Jul-09 04:28N 36°06' W 005°25'0 0.1
2018-Jul-09 03:58N 36°06' W 005°25'0 0.0
2018-Jul-09 03:28N 36°06' W 005°25'0 0.0
2018-Jul-09 02:52N 36°06' W 005°25'0 0.1
2018-Jul-09 02:28N 36°06' W 005°25'0 0.0
2018-Jul-09 01:58N 36°06' W 005°25'0 0.0
2018-Jul-09 01:28N 36°06' W 005°25'0 0.1
2018-Jul-09 00:58N 36°06' W 005°25'0 0.2
2018-Jul-09 00:28N 36°06' W 005°25'0 0.1
2018-Jul-08 23:58N 36°06' W 005°25'0 0.1
2018-Jul-08 23:28N 36°06' W 005°25'0 0.0
2018-Jul-08 22:58N 36°06' W 005°25'0 0.1
2018-Jul-08 22:25N 36°06' W 005°25'0 0.0
2018-Jul-08 21:52N 36°06' W 005°25'0 0.0
2018-Jul-08 21:04N 36°06' W 005°25'0 0.1
2018-Jul-08 20:58N 36°06' W 005°25'0 0.0
2018-Jul-08 20:28N 36°06' W 005°25'0 0.1
2018-Jul-08 19:58N 36°06' W 005°25'0 0.0
2018-Jul-08 19:28N 36°06' W 005°25'0 0.1
2018-Jul-08 18:58N 36°06' W 005°25'0 0.0
2018-Jul-08 18:28N 36°06' W 005°25'0 0.0
2018-Jul-08 17:58N 36°06' W 005°25'0 0.0
2018-Jul-08 17:25N 36°06' W 005°25'0 0.0
2018-Jul-08 16:58N 36°06' W 005°25'0 0.1
2018-Jul-08 16:28N 36°06' W 005°25'0 0.1
2018-Jul-08 15:58N 36°06' W 005°25'0 0.0
2018-Jul-08 15:28N 36°06' W 005°25'0 0.1
2018-Jul-08 14:55N 36°06' W 005°25'0 0.0
2018-Jul-08 14:28N 36°06' W 005°25'0 0.1
2018-Jul-08 13:58N 36°06' W 005°25'0 0.1
2018-Jul-08 13:28N 36°06' W 005°25'0 0.3
2018-Jul-08 12:58N 36°06' W 005°25'1 3.2
2018-Jul-08 12:31N 36°06' W 005°23'3 5.7
2018-Jul-08 12:01N 36°03' W 005°22'3 6.7
2018-Jul-08 11:31N 36°00' W 005°24'5 9.4
2018-Jul-08 11:00N 35°57' W 005°28'10 1.3
2018-Jul-08 03:27N 35°54' W 005°40'612.6
2018-Jul-08 03:00N 35°54' W 005°46'5012.6
2018-Jul-07 23:02N 36°01' W 006°48'612.6
2018-Jul-07 22:33N 36°02' W 006°55'1112.8
2018-Jul-07 21:42N 36°05' W 007°08'312.7
2018-Jul-07 21:30N 36°06' W 007°11'612.7
2018-Jul-07 21:00N 36°07' W 007°19'813.2
2018-Jul-07 20:26N 36°09' W 007°28'613.1
2018-Jul-07 20:00N 36°11' W 007°34'713.2
2018-Jul-07 19:30N 36°13' W 007°42'713.3
2018-Jul-07 19:00N 36°15' W 007°50'713.2
2018-Jul-07 18:30N 36°16' W 007°58'712.9
2018-Jul-07 17:58N 36°18' W 008°06'714.3
2018-Jul-07 17:29N 36°20' W 008°15'714.5
2018-Jul-07 17:00N 36°22' W 008°23'714.3
2018-Jul-07 16:30N 36°23' W 008°32'5713.9
2018-Jul-07 12:23N 36°51' W 009°34'10314.3
2018-Jul-07 05:11N 38°31' W 010°03'3214.4
2018-Jul-07 02:58N 39°03' W 010°07'  
Track history (hours):
 
Tides and Currents Weather Stations Pressure Air Temp Water Temp Dewpoint Dewpoint Depression Visibility Wind Speed Wind Dir Waves Ship Positions

Externo

Last reported at 2018-Jul-16 21:07 UTC. Time now 2018-Jul-17 04:11 UTC.
Position N 35°54' W 005°38'.

Length 141 m; draft 7.5 m.

Type: Ship (hazmat cat A). MMSI: 305838000.

Date/timePositionNaut miles runAvg speedWind from/ knotsBaromVisibWave heightAir tempDewpointWater temp
2018-Jul-16 21:07N 35°54' W 005°38'216.9
2018-Jul-16 21:00N 35°54' W 005°41'215 4.9
2018-Jul-15 01:03N 37°43' W 009°33'310.1
2018-Jul-15 00:44N 37°46' W 009°33'210.1
2018-Jul-15 00:29N 37°48' W 009°33'1210.0
2018-Jul-14 23:19N 37°60' W 009°32'410.3
2018-Jul-14 22:58N 38°04' W 009°31'510.2
2018-Jul-14 22:30N 38°08' W 009°31'510.1
2018-Jul-14 22:01N 38°13' W 009°31'510.1
2018-Jul-14 21:31N 38°18' W 009°30'510.2
2018-Jul-14 21:01N 38°23' W 009°30'510.4
2018-Jul-14 20:31N 38°29' W 009°28'510.8
2018-Jul-14 20:01N 38°34' W 009°26'5 9.6
2018-Jul-14 19:30N 38°37' W 009°22'510.2
2018-Jul-14 19:00N 38°41' W 009°18'712.9
2018-Jul-14 18:28N 38°42' W 009°09'3 5.3
2018-Jul-14 17:59N 38°44' W 009°06'0 0.0
2018-Jul-14 17:29N 38°44' W 009°06'0 0.0
2018-Jul-14 16:56N 38°44' W 009°06'0 0.0
2018-Jul-14 16:20N 38°44' W 009°06'0 0.0
2018-Jul-14 15:59N 38°44' W 009°06'0 0.0
2018-Jul-14 15:29N 38°44' W 009°06'0 0.0
2018-Jul-14 14:59N 38°44' W 009°06'0 0.0
2018-Jul-14 14:26N 38°44' W 009°06'0 0.0
2018-Jul-14 13:29N 38°44' W 009°06'0 0.0
2018-Jul-14 12:56N 38°44' W 009°06'0 0.0
2018-Jul-14 12:29N 38°44' W 009°06'0 0.0
2018-Jul-14 11:59N 38°44' W 009°06'0 0.0
2018-Jul-14 11:29N 38°44' W 009°06'0 0.0
2018-Jul-14 10:56N 38°44' W 009°06'0 0.0
2018-Jul-14 10:26N 38°44' W 009°06'0 0.0
2018-Jul-14 09:59N 38°44' W 009°06'0 0.0
2018-Jul-14 09:29N 38°44' W 009°06'0 0.7
2018-Jul-14 09:00N 38°43' W 009°07'611.4
2018-Jul-14 08:28N 38°41' W 009°14'511.4
2018-Jul-14 08:00N 38°39' W 009°20'815.5
2018-Jul-14 07:30N 38°36' W 009°29'917.2
2018-Jul-14 07:00N 38°35' W 009°40'917.3
2018-Jul-14 06:30N 38°35' W 009°51'2513.2
2018-Jul-14 04:37N 38°57' W 010°05'216.7
2018-Jul-14 04:30N 38°59' W 010°05'816.5
2018-Jul-14 03:59N 39°08' W 010°05'1116.6
2018-Jul-14 03:20N 39°19' W 010°06'917.1
2018-Jul-14 02:49N 39°27' W 010°06'516.9
2018-Jul-14 02:30N 39°33' W 010°04'2116.8
2018-Jul-14 01:14N 39°53' W 009°55'13717.0
2018-Jul-13 17:09N 42°04' W 008°60'317.5
2018-Jul-13 17:00N 42°06' W 008°59'816.1
2018-Jul-13 16:30N 42°12' W 008°51'7 0.3
2018-Jul-12 19:10N 42°15' W 008°43'1 5.2
2018-Jul-12 19:00N 42°15' W 008°44'510.4
2018-Jul-12 18:30N 42°12' W 008°50'714.9
2018-Jul-12 18:01N 42°08' W 008°58'5215.0
2018-Jul-12 14:33N 41°16' W 008°49'115.4
2018-Jul-12 14:30N 41°15' W 008°49'713.9
2018-Jul-12 14:01N 41°10' W 008°43'2 4.7
2018-Jul-12 13:30N 41°12' W 008°41'0 0.0
2018-Jul-12 12:58N 41°12' W 008°41'0 0.0
2018-Jul-12 12:28N 41°12' W 008°41'0 0.0
2018-Jul-12 11:58N 41°12' W 008°41'0 0.0
2018-Jul-12 11:28N 41°12' W 008°41'0 0.0
2018-Jul-12 10:58N 41°12' W 008°41'0 0.0
2018-Jul-12 10:28N 41°12' W 008°41'0 0.0
2018-Jul-12 09:58N 41°12' W 008°41'0 0.0
2018-Jul-12 09:28N 41°12' W 008°41'0 0.0
2018-Jul-12 08:58N 41°12' W 008°41'0 0.0
2018-Jul-12 08:25N 41°12' W 008°41'0 0.0
2018-Jul-12 07:58N 41°12' W 008°41'0 0.0
2018-Jul-12 07:28N 41°12' W 008°41'0 0.0
2018-Jul-12 06:58N 41°12' W 008°41'0 0.0
2018-Jul-12 06:28N 41°12' W 008°41'0 0.0
2018-Jul-12 05:58N 41°12' W 008°41'0 0.0
2018-Jul-12 05:28N 41°12' W 008°41'0 0.0
2018-Jul-12 04:58N 41°12' W 008°41'0 0.0
2018-Jul-12 04:28N 41°12' W 008°41'0 0.0
2018-Jul-12 03:58N 41°12' W 008°41'0 0.0
2018-Jul-12 03:28N 41°12' W 008°41'0 0.0
2018-Jul-12 02:58N 41°12' W 008°41'0 0.0
2018-Jul-12 02:28N 41°12' W 008°41'0 0.0
2018-Jul-12 01:58N 41°12' W 008°41'0 0.0
2018-Jul-12 01:28N 41°12' W 008°41'0 0.0
2018-Jul-12 00:58N 41°12' W 008°41'0 0.0
2018-Jul-12 00:28N 41°12' W 008°41'1 1.4
2018-Jul-12 00:00N 41°11' W 008°42'3 5.4
2018-Jul-11 23:31N 41°10' W 008°45'2 3.6
2018-Jul-11 23:00N 41°10' W 008°47'2 4.5
2018-Jul-11 22:30N 41°11' W 008°50'1 1.3
2018-Jul-11 22:00N 41°11' W 008°50'1 2.3
2018-Jul-11 21:30N 41°10' W 008°50'1 2.5
2018-Jul-11 20:59N 41°09' W 008°50'2 4.0
2018-Jul-11 20:30N 41°07' W 008°52'6611.6
2018-Jul-11 14:45N 40°06' W 009°25'613.3
2018-Jul-11 14:20N 40°00' W 009°28'1514.2
2018-Jul-11 13:15N 39°46' W 009°35'414.3
2018-Jul-11 13:00N 39°43' W 009°37'1014.2
2018-Jul-11 12:20N 39°34' W 009°41'413.6
2018-Jul-11 12:00N 39°30' W 009°43'713.9
2018-Jul-11 11:30N 39°23' W 009°45'814.4
2018-Jul-11 10:58N 39°15' W 009°46'714.7
2018-Jul-11 10:30N 39°09' W 009°47'714.4
2018-Jul-11 10:00N 39°02' W 009°49'714.5
2018-Jul-11 09:31N 38°54' W 009°50'714.6
2018-Jul-11 09:00N 38°47' W 009°50'714.5
2018-Jul-11 08:30N 38°40' W 009°49'714.3
2018-Jul-11 08:00N 38°33' W 009°48'714.4
2018-Jul-11 07:30N 38°26' W 009°45'714.6
2018-Jul-11 07:00N 38°19' W 009°42'714.7
2018-Jul-11 06:31N 38°12' W 009°40'714.6
2018-Jul-11 06:00N 38°05' W 009°39'816.0
2018-Jul-11 05:30N 37°57' W 009°36'916.4
2018-Jul-11 04:59N 37°48' W 009°34'916.2
2018-Jul-11 04:24N 37°39' W 009°31'2616.1
2018-Jul-11 02:46N 37°13' W 009°24'416.1
2018-Jul-11 02:30N 37°09' W 009°23'815.8
2018-Jul-11 02:01N 37°02' W 009°21'915.6
2018-Jul-11 01:24N 36°53' W 009°17'616.4
2018-Jul-11 01:00N 36°48' W 009°12'815.6
2018-Jul-11 00:30N 36°44' W 009°03'815.8
2018-Jul-11 00:00N 36°42' W 008°54'815.7
2018-Jul-10 23:30N 36°39' W 008°45'2915.3
2018-Jul-10 21:36N 36°30' W 008°11'114.3
2018-Jul-10 21:30N 36°29' W 008°09'1013.9
2018-Jul-10 20:45N 36°26' W 007°56'514.0
2018-Jul-10 20:26N 36°25' W 007°51'913.9
2018-Jul-10 19:48N 36°22' W 007°41'914.5
2018-Jul-10 19:11N 36°19' W 007°30'7115.0
2018-Jul-10 14:28N 35°58' W 006°07'2613.8
2018-Jul-10 12:34N 35°59' W 005°34'114.2
2018-Jul-10 12:30N 35°59' W 005°33'813.1
2018-Jul-10 11:55N 36°02' W 005°24'512.4
2018-Jul-10 11:30N 36°07' W 005°25'1 0.2
2018-Jul-10 07:03N 36°08' W 005°25'0 0.0
2018-Jul-10 06:51N 36°08' W 005°25'0 0.0
2018-Jul-10 06:21N 36°08' W 005°25'0 0.0
2018-Jul-10 05:57N 36°08' W 005°25'0 0.0
2018-Jul-10 05:30N 36°08' W 005°25'0 0.0
2018-Jul-10 05:00N 36°08' W 005°25'0 0.0
2018-Jul-10 04:28N 36°08' W 005°25'0 0.0
2018-Jul-10 03:55N 36°08' W 005°25'0 0.0
2018-Jul-10 03:28N 36°08' W 005°25'0 0.0
2018-Jul-10 02:58N 36°08' W 005°25'0 0.0
2018-Jul-10 02:29N 36°08' W 005°25'0 0.0
2018-Jul-10 01:59N 36°08' W 005°25'0 0.0
2018-Jul-10 01:29N 36°08' W 005°25'0 0.0
2018-Jul-10 00:59N 36°08' W 005°25'0 0.0
2018-Jul-10 00:29N 36°08' W 005°25'0 0.0
2018-Jul-09 23:59N 36°08' W 005°25'0 0.0
2018-Jul-09 23:29N 36°08' W 005°25'0 0.0
2018-Jul-09 22:23N 36°08' W 005°25'0 0.0
2018-Jul-09 21:52N 36°08' W 005°25'1 2.2
2018-Jul-09 21:14N 36°07' W 005°24'1 4.7
2018-Jul-09 21:00N 36°06' W 005°25'0 0.3
2018-Jul-09 20:28N 36°06' W 005°25'0 0.1
2018-Jul-09 19:58N 36°06' W 005°25'0 0.1
2018-Jul-09 18:55N 36°06' W 005°25'0 0.0
2018-Jul-09 18:25N 36°06' W 005°25'0 0.0
2018-Jul-09 17:55N 36°06' W 005°25'0 0.0
2018-Jul-09 17:28N 36°06' W 005°25'0 0.0
2018-Jul-09 16:55N 36°06' W 005°25'0 0.0
2018-Jul-09 16:25N 36°06' W 005°25'0 0.0
2018-Jul-09 15:55N 36°06' W 005°25'0 0.1
2018-Jul-09 15:13N 36°06' W 005°25'0 0.0
2018-Jul-09 14:16N 36°06' W 005°25'0 0.1
2018-Jul-09 13:22N 36°06' W 005°25'0 0.2
2018-Jul-09 12:58N 36°06' W 005°25'0 0.0
2018-Jul-09 12:28N 36°06' W 005°25'0 0.1
2018-Jul-09 11:58N 36°06' W 005°25'0 0.0
2018-Jul-09 11:28N 36°06' W 005°25'0 0.1
2018-Jul-09 10:58N 36°06' W 005°25'0 0.0
2018-Jul-09 10:04N 36°06' W 005°25'0 0.0
2018-Jul-09 09:58N 36°06' W 005°25'0 0.0
2018-Jul-09 09:22N 36°06' W 005°25'0 0.1
2018-Jul-09 08:58N 36°06' W 005°25'0 0.0
2018-Jul-09 08:16N 36°06' W 005°25'0 0.0
2018-Jul-09 07:58N 36°06' W 005°25'0 0.0
2018-Jul-09 07:10N 36°06' W 005°25'0 0.1
2018-Jul-09 05:37N 36°06' W 005°25'0 0.2
2018-Jul-09 05:28N 36°06' W 005°25'0 0.0
2018-Jul-09 04:58N 36°06' W 005°25'0 0.1
2018-Jul-09 04:28N 36°06' W 005°25'0 0.1
2018-Jul-09 03:58N 36°06' W 005°25'0 0.0
2018-Jul-09 03:28N 36°06' W 005°25'0 0.0
2018-Jul-09 02:52N 36°06' W 005°25'0 0.1
2018-Jul-09 02:28N 36°06' W 005°25'0 0.0
2018-Jul-09 01:58N 36°06' W 005°25'0 0.0
2018-Jul-09 01:28N 36°06' W 005°25'0 0.1
2018-Jul-09 00:58N 36°06' W 005°25'0 0.2
2018-Jul-09 00:28N 36°06' W 005°25'0 0.1
2018-Jul-08 23:58N 36°06' W 005°25'0 0.1
2018-Jul-08 23:28N 36°06' W 005°25'0 0.0
2018-Jul-08 22:58N 36°06' W 005°25'0 0.1
2018-Jul-08 22:25N 36°06' W 005°25'0 0.0
2018-Jul-08 21:52N 36°06' W 005°25'0 0.0
2018-Jul-08 21:04N 36°06' W 005°25'0 0.1
2018-Jul-08 20:58N 36°06' W 005°25'0 0.0
2018-Jul-08 20:28N 36°06' W 005°25'0 0.1
2018-Jul-08 19:58N 36°06' W 005°25'0 0.0
2018-Jul-08 19:28N 36°06' W 005°25'0 0.1
2018-Jul-08 18:58N 36°06' W 005°25'0 0.0
2018-Jul-08 18:28N 36°06' W 005°25'0 0.0
2018-Jul-08 17:58N 36°06' W 005°25'0 0.0
2018-Jul-08 17:25N 36°06' W 005°25'0 0.0
2018-Jul-08 16:58N 36°06' W 005°25'0 0.1
2018-Jul-08 16:28N 36°06' W 005°25'0 0.1
2018-Jul-08 15:58N 36°06' W 005°25'0 0.0
2018-Jul-08 15:28N 36°06' W 005°25'0 0.1
2018-Jul-08 14:55N 36°06' W 005°25'0 0.0
2018-Jul-08 14:28N 36°06' W 005°25'0 0.1
2018-Jul-08 13:58N 36°06' W 005°25'0 0.1
2018-Jul-08 13:28N 36°06' W 005°25'0 0.3
2018-Jul-08 12:58N 36°06' W 005°25'1 3.2
2018-Jul-08 12:31N 36°06' W 005°23'3 5.7
2018-Jul-08 12:01N 36°03' W 005°22'3 6.7
2018-Jul-08 11:31N 36°00' W 005°24'5 9.4
2018-Jul-08 11:00N 35°57' W 005°28'10 1.3
2018-Jul-08 03:27N 35°54' W 005°40'612.6
2018-Jul-08 03:00N 35°54' W 005°46'5012.6
2018-Jul-07 23:02N 36°01' W 006°48'612.6
2018-Jul-07 22:33N 36°02' W 006°55'1112.8
2018-Jul-07 21:42N 36°05' W 007°08'312.7
2018-Jul-07 21:30N 36°06' W 007°11'612.7
2018-Jul-07 21:00N 36°07' W 007°19'813.2
2018-Jul-07 20:26N 36°09' W 007°28'613.1
2018-Jul-07 20:00N 36°11' W 007°34'713.2
2018-Jul-07 19:30N 36°13' W 007°42'713.3
2018-Jul-07 19:00N 36°15' W 007°50'713.2
2018-Jul-07 18:30N 36°16' W 007°58'712.9
2018-Jul-07 17:58N 36°18' W 008°06'714.3
2018-Jul-07 17:29N 36°20' W 008°15'714.5
2018-Jul-07 17:00N 36°22' W 008°23'714.3
2018-Jul-07 16:30N 36°23' W 008°32'5713.9
2018-Jul-07 12:23N 36°51' W 009°34'10314.3
2018-Jul-07 05:11N 38°31' W 010°03'3214.4
2018-Jul-07 02:58N 39°03' W 010°07'  

Dump ship's entire track history